Terminal Aerodrome Forecast
Issued by NWS Billings, MT

Home | Current Version | Previous Version | Graphics & Text | Print | Product List | Glossary On
Versions: 1 2 3 4 5 6 7 8 9 10 11 12 13 14 15 16 17 18 19 20 21 22 23 24 25 26 27
000
FTUS45 KBYZ 261736
TAFMLS
TAF
KMLS 261736Z 2618/2718 05008KT P6SM BKN080
     FM262000 29012G22KT P6SM BKN080
     FM270200 15008KT P6SM BKN080
     FM270800 28010KT P6SM SCT080 BKN120=

USA.gov is the U.S. government's official web portal to all federal, state and local government web resources and services.